Portada
METAR-TAF:

METAR-TAF

Aeroports :

Nakashibetsu, Japó

latitud: 43-34N, longitud: 144-58E, altitud: 66 m

Observació

L'informe es va fer fa 6 hores i 47 minuts, a les 09:00 UTC
Vent 5 kt del Sud-Oest
Temperatura 16°C
Humitat 39%
Pressió 1009 hPa
Visibilitat 10 km o més
Escasses núvols a una alçada de 3000 ft
Núvols disperses a una alçada de 10000 ft

METAR: RJCN 060900Z 23005KT 9999 FEW030 SCT100 16/02 Q1009

Hora: 00:47 (15:47 UTC)


TAF: manca

Observacions i pronòstics meteorològics de més de 4000 aeroports (METAR i TAF).

Les estacions disponibles són els punts grocs i vermells al mapa.

Posi el ratolí al punt desitjat per veure el nom de l'estació.

Feu clic per veure les observacions i els pronòstics meteorològics.

Per canviar el mapa: feu clic els botons verds amb una creu de color negre per apropar; al botó verd amb un guió per allunyar la imatge; o en les fletxes verdes per a mapes adjacents.


METAR-TAF: